sensor_id;sensor_type;location;lat;lon;timestamp;pressure;altitude;pressure_sealevel;temperature;humidity
71621;BME280;59471;42.254;23.102;2024-01-27T00:00:55;96480.91;;;-0.44;81.96
71621;BME280;59471;42.254;23.102;2024-01-27T00:03:21;96482.88;;;-0.20;81.28
71621;BME280;59471;42.254;23.102;2024-01-27T00:05:46;96486.06;;;-0.44;81.86
71621;BME280;59471;42.254;23.102;2024-01-27T00:08:12;96495.06;;;-0.37;81.37
71621;BME280;59471;42.254;23.102;2024-01-27T00:10:37;96480.31;;;-0.35;81.02
71621;BME280;59471;42.254;23.102;2024-01-27T00:13:03;96462.88;;;-0.30;81.48
71621;BME280;59471;42.254;23.102;2024-01-27T00:15:28;96454.63;;;-0.49;81.79
71621;BME280;59471;42.254;23.102;2024-01-27T00:17:54;96463.16;;;-0.34;81.61
71621;BME280;59471;42.254;23.102;2024-01-27T00:20:19;96474.28;;;-0.34;81.31
71621;BME280;59471;42.254;23.102;2024-01-27T00:22:45;96473.13;;;-0.57;82.80
71621;BME280;59471;42.254;23.102;2024-01-27T00:25:10;96475.34;;;-0.24;82.57
71621;BME280;59471;42.254;23.102;2024-01-27T00:27:36;96478.13;;;-0.27;81.84
71621;BME280;59471;42.254;23.102;2024-01-27T00:30:01;96466.63;;;-0.35;81.54
71621;BME280;59471;42.254;23.102;2024-01-27T00:32:27;96461.56;;;-0.22;82.45
71621;BME280;59471;42.254;23.102;2024-01-27T00:34:52;96458.88;;;-0.62;82.98
71621;BME280;59471;42.254;23.102;2024-01-27T00:37:18;96461.25;;;-0.74;82.70
71621;BME280;59471;42.254;23.102;2024-01-27T00:39:43;96466.31;;;-0.58;82.86
71621;BME280;59471;42.254;23.102;2024-01-27T00:42:10;96459.97;;;-0.52;82.37
71621;BME280;59471;42.254;23.102;2024-01-27T00:44:36;96474.28;;;-0.34;82.02
71621;BME280;59471;42.254;23.102;2024-01-27T00:47:02;96483.44;;;-0.15;81.17
71621;BME280;59471;42.254;23.102;2024-01-27T00:49:28;96480.09;;;-0.03;81.31
71621;BME280;59471;42.254;23.102;2024-01-27T00:51:54;96489.53;;;-0.31;82.16
71621;BME280;59471;42.254;23.102;2024-01-27T00:54:19;96477.38;;;-0.29;82.03
71621;BME280;59471;42.254;23.102;2024-01-27T00:56:45;96488.09;;;-0.49;82.58
71621;BME280;59471;42.254;23.102;2024-01-27T00:59:10;96487.16;;;-0.77;83.97
71621;BME280;59471;42.254;23.102;2024-01-27T01:01:36;96492.84;;;-0.86;84.45
71621;BME280;59471;42.254;23.102;2024-01-27T01:04:01;96475.50;;;-0.68;83.99
71621;BME280;59471;42.254;23.102;2024-01-27T01:06:27;96471.44;;;-0.58;83.65
71621;BME280;59471;42.254;23.102;2024-01-27T01:08:53;96460.34;;;-0.58;82.79
71621;BME280;59471;42.254;23.102;2024-01-27T01:11:18;96471.16;;;-0.39;82.37
71621;BME280;59471;42.254;23.102;2024-01-27T01:13:44;96464.88;;;-0.35;82.02
71621;BME280;59471;42.254;23.102;2024-01-27T01:16:09;96458.13;;;-0.50;82.42
71621;BME280;59471;42.254;23.102;2024-01-27T01:18:35;96463.66;;;-1.13;84.56
71621;BME280;59471;42.254;23.102;2024-01-27T01:21:00;96463.69;;;-1.74;88.12
71621;BME280;59471;42.254;23.102;2024-01-27T01:23:26;96462.63;;;-1.11;86.92
71621;BME280;59471;42.254;23.102;2024-01-27T01:25:51;96457.03;;;-0.89;85.45
71621;BME280;59471;42.254;23.102;2024-01-27T01:28:17;96454.81;;;-0.52;84.59
71621;BME280;59471;42.254;23.102;2024-01-27T01:30:42;96447.28;;;-0.70;83.89
71621;BME280;59471;42.254;23.102;2024-01-27T01:33:10;96452.44;;;-0.70;84.01
71621;BME280;59471;42.254;23.102;2024-01-27T01:35:36;96458.88;;;-0.62;84.14
71621;BME280;59471;42.254;23.102;2024-01-27T01:38:03;96443.81;;;-0.68;83.35
71621;BME280;59471;42.254;23.102;2024-01-27T01:40:28;96457.13;;;-0.62;83.67
71621;BME280;59471;42.254;23.102;2024-01-27T01:42:54;96471.78;;;-0.35;83.11
71621;BME280;59471;42.254;23.102;2024-01-27T01:45:20;96481.47;;;-0.53;82.85
71621;BME280;59471;42.254;23.102;2024-01-27T01:47:46;96480.91;;;-0.58;83.95
71621;BME280;59471;42.254;23.102;2024-01-27T01:50:11;96477.97;;;-0.38;83.01
71621;BME280;59471;42.254;23.102;2024-01-27T01:52:38;96473.59;;;-0.79;83.66
71621;BME280;59471;42.254;23.102;2024-01-27T01:55:04;96467.88;;;-1.12;85.38
71621;BME280;59471;42.254;23.102;2024-01-27T01:57:30;96461.44;;;-1.05;85.72
71621;BME280;59471;42.254;23.102;2024-01-27T01:59:57;96477.97;;;-0.95;85.56
71621;BME280;59471;42.254;23.102;2024-01-27T02:02:22;96473.59;;;-0.79;84.72
71621;BME280;59471;42.254;23.102;2024-01-27T02:04:48;96475.59;;;-0.55;84.15
71621;BME280;59471;42.254;23.102;2024-01-27T02:07:14;96481.09;;;-0.61;83.86
71621;BME280;59471;42.254;23.102;2024-01-27T02:09:39;96463.53;;;-0.40;83.11
71621;BME280;59471;42.254;23.102;2024-01-27T02:12:05;96457.38;;;-0.38;83.57
71621;BME280;59471;42.254;23.102;2024-01-27T02:14:31;96458.53;;;-0.29;83.17
71621;BME280;59471;42.254;23.102;2024-01-27T02:16:57;96461.06;;;-1.28;86.28
71621;BME280;59471;42.254;23.102;2024-01-27T02:19:23;96457.75;;;-1.01;86.60
71621;BME280;59471;42.254;23.102;2024-01-27T02:21:49;96456.13;;;-0.74;85.61
71621;BME280;59471;42.254;23.102;2024-01-27T02:24:14;96454.66;;;-0.92;85.67
71621;BME280;59471;42.254;23.102;2024-01-27T02:26:40;96448.25;;;-0.85;85.91
71621;BME280;59471;42.254;23.102;2024-01-27T02:29:05;96450.25;;;-0.90;86.25
71621;BME280;59471;42.254;23.102;2024-01-27T02:31:31;96448.97;;;-0.68;85.75
71621;BME280;59471;42.254;23.102;2024-01-27T02:33:56;96437.56;;;-0.50;85.75
71621;BME280;59471;42.254;23.102;2024-01-27T02:36:22;96439.00;;;-0.46;85.07
71621;BME280;59471;42.254;23.102;2024-01-27T02:38:47;96432.34;;;-0.36;84.01
71621;BME280;59471;42.254;23.102;2024-01-27T02:41:13;96429.66;;;-0.20;84.07
71621;BME280;59471;42.254;23.102;2024-01-27T02:43:40;96417.94;;;-0.11;84.87
71621;BME280;59471;42.254;23.102;2024-01-27T02:46:08;96432.81;;;-0.02;84.22
71621;BME280;59471;42.254;23.102;2024-01-27T02:48:35;96432.13;;;-0.18;83.57
71621;BME280;59471;42.254;23.102;2024-01-27T02:51:04;96432.72;;;-0.28;83.96
71621;BME280;59471;42.254;23.102;2024-01-27T02:53:30;96426.09;;;-0.32;85.01
71621;BME280;59471;42.254;23.102;2024-01-27T02:55:56;96420.56;;;-0.26;85.01
71621;BME280;59471;42.254;23.102;2024-01-27T02:58:21;96411.34;;;-0.42;85.70
71621;BME280;59471;42.254;23.102;2024-01-27T03:00:47;96422.72;;;-0.05;84.90
71621;BME280;59471;42.254;23.102;2024-01-27T03:03:13;96423.91;;;-0.11;84.96
71621;BME280;59471;42.254;23.102;2024-01-27T03:05:38;96428.63;;;-0.17;85.06
71621;BME280;59471;42.254;23.102;2024-01-27T03:08:04;96418.78;;;-0.38;84.32
71621;BME280;59471;42.254;23.102;2024-01-27T03:10:30;96422.38;;;-0.55;84.93
71621;BME280;59471;42.254;23.102;2024-01-27T03:12:56;96420.47;;;-0.80;86.43
71621;BME280;59471;42.254;23.102;2024-01-27T03:15:22;96429.56;;;-0.60;86.06
71621;BME280;59471;42.254;23.102;2024-01-27T03:17:48;96428.97;;;-0.36;85.15
71621;BME280;59471;42.254;23.102;2024-01-27T03:20:13;96426.16;;;-0.60;85.13
71621;BME280;59471;42.254;23.102;2024-01-27T03:22:39;96424.53;;;-0.90;87.29
71621;BME280;59471;42.254;23.102;2024-01-27T03:25:07;96435.31;;;-0.42;86.66
71621;BME280;59471;42.254;23.102;2024-01-27T03:27:36;96434.53;;;-0.15;85.18
71621;BME280;59471;42.254;23.102;2024-01-27T03:30:02;96424.75;;;-0.10;85.12
71621;BME280;59471;42.254;23.102;2024-01-27T03:32:31;96429.06;;;-0.38;85.60
71621;BME280;59471;42.254;23.102;2024-01-27T03:35:00;96421.34;;;-0.11;85.38
71621;BME280;59471;42.254;23.102;2024-01-27T03:37:26;96430.50;;;-0.07;85.19
71621;BME280;59471;42.254;23.102;2024-01-27T03:39:52;96431.66;;;0.16;84.79
71621;BME280;59471;42.254;23.102;2024-01-27T03:42:18;96428.88;;;0.19;84.04
71621;BME280;59471;42.254;23.102;2024-01-27T03:44:43;96438.19;;;0.08;85.44
71621;BME280;59471;42.254;23.102;2024-01-27T03:47:09;96432.03;;;-0.17;84.84
71621;BME280;59471;42.254;23.102;2024-01-27T03:49:34;96434.03;;;-0.49;84.89
71621;BME280;59471;42.254;23.102;2024-01-27T03:52:00;96434.00;;;-0.35;84.94
71621;BME280;59471;42.254;23.102;2024-01-27T03:54:25;96445.34;;;-0.10;84.55
71621;BME280;59471;42.254;23.102;2024-01-27T03:56:51;96430.31;;;-0.04;84.27
71621;BME280;59471;42.254;23.102;2024-01-27T03:59:16;96429.56;;;0.21;83.78
71621;BME280;59471;42.254;23.102;2024-01-27T04:01:42;96432.94;;;0.49;82.55
71621;BME280;59471;42.254;23.102;2024-01-27T04:04:08;96434.47;;;0.39;83.74
71621;BME280;59471;42.254;23.102;2024-01-27T04:06:37;96431.69;;;0.42;82.45
71621;BME280;59471;42.254;23.102;2024-01-27T04:09:06;96430.16;;;0.12;82.52
71621;BME280;59471;42.254;23.102;2024-01-27T04:11:35;96433.63;;;0.26;82.63
71621;BME280;59471;42.254;23.102;2024-01-27T04:14:06;96428.75;;;0.21;83.27
71621;BME280;59471;42.254;23.102;2024-01-27T04:16:31;96427.94;;;0.20;83.38
71621;BME280;59471;42.254;23.102;2024-01-27T04:18:57;96439.41;;;0.02;83.66
71621;BME280;59471;42.254;23.102;2024-01-27T04:21:23;96431.84;;;0.13;83.43
71621;BME280;59471;42.254;23.102;2024-01-27T04:23:48;96436.84;;;0.42;82.98
71621;BME280;59471;42.254;23.102;2024-01-27T04:26:14;96442.44;;;0.49;82.84
71621;BME280;59471;42.254;23.102;2024-01-27T04:28:39;96449.00;;;0.40;82.98
71621;BME280;59471;42.254;23.102;2024-01-27T04:31:05;96442.25;;;0.64;82.93
71621;BME280;59471;42.254;23.102;2024-01-27T04:33:31;96430.59;;;0.72;82.74
71621;BME280;59471;42.254;23.102;2024-01-27T04:35:57;96433.34;;;0.43;83.10
71621;BME280;59471;42.254;23.102;2024-01-27T04:38:22;96427.16;;;0.45;82.73
71621;BME280;59471;42.254;23.102;2024-01-27T04:40:50;96438.47;;;0.30;82.48
71621;BME280;59471;42.254;23.102;2024-01-27T04:43:16;96435.28;;;0.27;83.00
71621;BME280;59471;42.254;23.102;2024-01-27T04:45:42;96437.44;;;0.33;82.50
71621;BME280;59471;42.254;23.102;2024-01-27T04:48:08;96437.69;;;-0.39;85.85
71621;BME280;59471;42.254;23.102;2024-01-27T04:50:34;96422.31;;;0.01;84.91
71621;BME280;59471;42.254;23.102;2024-01-27T04:53:00;96420.25;;;0.06;84.47
71621;BME280;59471;42.254;23.102;2024-01-27T04:55:26;96424.94;;;-0.13;85.21
71621;BME280;59471;42.254;23.102;2024-01-27T04:57:51;96418.66;;;0.18;84.70
71621;BME280;59471;42.254;23.102;2024-01-27T05:00:17;96417.25;;;0.39;84.36
71621;BME280;59471;42.254;23.102;2024-01-27T05:02:43;96419.06;;;0.25;84.64
71621;BME280;59471;42.254;23.102;2024-01-27T05:05:08;96434.50;;;0.52;84.07
71621;BME280;59471;42.254;23.102;2024-01-27T05:07:34;96434.34;;;0.28;84.19
71621;BME280;59471;42.254;23.102;2024-01-27T05:10:00;96435.22;;;0.54;84.23
71621;BME280;59471;42.254;23.102;2024-01-27T05:12:26;96447.44;;;0.37;84.07
71621;BME280;59471;42.254;23.102;2024-01-27T05:14:51;96434.81;;;0.07;86.02
71621;BME280;59471;42.254;23.102;2024-01-27T05:17:17;96448.38;;;0.36;84.55
71621;BME280;59471;42.254;23.102;2024-01-27T05:19:43;96446.47;;;0.13;85.71
71621;BME280;59471;42.254;23.102;2024-01-27T05:22:09;96455.44;;;-0.07;87.16
71621;BME280;59471;42.254;23.102;2024-01-27T05:24:34;96462.47;;;0.31;86.83
71621;BME280;59471;42.254;23.102;2024-01-27T05:27:00;96462.22;;;0.48;86.01
71621;BME280;59471;42.254;23.102;2024-01-27T05:29:28;96460.19;;;0.79;85.84
71621;BME280;59471;42.254;23.102;2024-01-27T05:31:54;96467.09;;;0.91;85.71
71621;BME280;59471;42.254;23.102;2024-01-27T05:34:19;96470.53;;;0.91;84.65
71621;BME280;59471;42.254;23.102;2024-01-27T05:36:47;96474.94;;;0.77;85.53
71621;BME280;59471;42.254;23.102;2024-01-27T05:39:13;96473.00;;;0.80;85.19
71621;BME280;59471;42.254;23.102;2024-01-27T05:41:39;96476.09;;;0.73;85.99
71621;BME280;59471;42.254;23.102;2024-01-27T05:44:05;96479.25;;;0.63;86.82
71621;BME280;59471;42.254;23.102;2024-01-27T05:46:30;96487.53;;;0.29;88.07
71621;BME280;59471;42.254;23.102;2024-01-27T05:48:56;96490.59;;;-0.06;91.17
71621;BME280;59471;42.254;23.102;2024-01-27T05:51:26;96482.56;;;0.26;89.61
71621;BME280;59471;42.254;23.102;2024-01-27T05:53:52;96491.41;;;0.21;89.97
71621;BME280;59471;42.254;23.102;2024-01-27T05:56:17;96492.50;;;-0.10;91.44
71621;BME280;59471;42.254;23.102;2024-01-27T05:58:46;96495.25;;;-0.68;94.19
71621;BME280;59471;42.254;23.102;2024-01-27T06:01:11;96503.50;;;-0.63;96.26
71621;BME280;59471;42.254;23.102;2024-01-27T06:03:37;96498.34;;;-0.35;96.03
71621;BME280;59471;42.254;23.102;2024-01-27T06:06:03;96501.47;;;-0.30;95.27
71621;BME280;59471;42.254;23.102;2024-01-27T06:08:29;96503.69;;;-0.66;96.07
71621;BME280;59471;42.254;23.102;2024-01-27T06:10:55;96502.06;;;-0.82;97.99
71621;BME280;59471;42.254;23.102;2024-01-27T06:13:20;96505.00;;;-0.59;97.91
71621;BME280;59471;42.254;23.102;2024-01-27T06:15:46;96512.16;;;-0.64;97.53
71621;BME280;59471;42.254;23.102;2024-01-27T06:18:11;96509.31;;;-0.31;96.78
71621;BME280;59471;42.254;23.102;2024-01-27T06:20:37;96505.72;;;-0.43;95.33
71621;BME280;59471;42.254;23.102;2024-01-27T06:23:02;96524.91;;;-0.77;96.92
71621;BME280;59471;42.254;23.102;2024-01-27T06:25:28;96523.16;;;-0.48;97.88
71621;BME280;59471;42.254;23.102;2024-01-27T06:27:53;96527.41;;;-0.61;96.07
71621;BME280;59471;42.254;23.102;2024-01-27T06:30:19;96525.94;;;-0.65;98.46
71621;BME280;59471;42.254;23.102;2024-01-27T06:32:46;96540.91;;;-0.15;96.76
71621;BME280;59471;42.254;23.102;2024-01-27T06:35:12;96540.22;;;-0.04;96.50
71621;BME280;59471;42.254;23.102;2024-01-27T06:37:38;96540.59;;;0.04;94.50
71621;BME280;59471;42.254;23.102;2024-01-27T06:40:03;96539.69;;;-0.09;95.59
71621;BME280;59471;42.254;23.102;2024-01-27T06:42:29;96543.75;;;-0.48;95.79
71621;BME280;59471;42.254;23.102;2024-01-27T06:44:55;96562.28;;;-1.00;98.63
71621;BME280;59471;42.254;23.102;2024-01-27T06:47:21;96557.91;;;-0.55;98.89
71621;BME280;59471;42.254;23.102;2024-01-27T06:49:47;96559.56;;;-0.54;97.39
71621;BME280;59471;42.254;23.102;2024-01-27T06:52:12;96562.59;;;-0.62;97.97
71621;BME280;59471;42.254;23.102;2024-01-27T06:54:38;96565.06;;;-0.60;98.11
71621;BME280;59471;42.254;23.102;2024-01-27T06:57:17;96563.41;;;-0.61;96.87
71621;BME280;59471;42.254;23.102;2024-01-27T06:59:47;96575.19;;;-0.57;98.25
71621;BME280;59471;42.254;23.102;2024-01-27T07:02:23;96589.50;;;-0.82;99.02
71621;BME280;59471;42.254;23.102;2024-01-27T07:04:52;96573.44;;;-0.71;99.02
71621;BME280;59471;42.254;23.102;2024-01-27T07:07:22;96564.69;;;-0.54;98.96
71621;BME280;59471;42.254;23.102;2024-01-27T07:09:49;96588.03;;;-0.72;98.80
71621;BME280;59471;42.254;23.102;2024-01-27T07:12:15;96572.59;;;-0.72;99.88
71621;BME280;59471;42.254;23.102;2024-01-27T07:14:40;96579.13;;;-0.52;99.68
71621;BME280;59471;42.254;23.102;2024-01-27T07:17:06;96596.41;;;-0.11;99.24
71621;BME280;59471;42.254;23.102;2024-01-27T07:19:31;96605.91;;;-0.40;97.30
71621;BME280;59471;42.254;23.102;2024-01-27T07:21:58;96579.69;;;-0.61;98.91
71621;BME280;59471;42.254;23.102;2024-01-27T07:24:25;96597.88;;;-0.64;99.14
71621;BME280;59471;42.254;23.102;2024-01-27T07:26:51;96577.94;;;-0.46;99.36
71621;BME280;59471;42.254;23.102;2024-01-27T07:29:16;96585.66;;;-0.17;98.13
71621;BME280;59471;42.254;23.102;2024-01-27T07:31:42;96564.50;;;-0.08;98.52
71621;BME280;59471;42.254;23.102;2024-01-27T07:34:08;96569.03;;;0.30;96.09
71621;BME280;59471;42.254;23.102;2024-01-27T07:36:34;96575.00;;;-0.54;99.20
71621;BME280;59471;42.254;23.102;2024-01-27T07:38:59;96558.47;;;-0.36;99.15
71621;BME280;59471;42.254;23.102;2024-01-27T07:41:25;96570.03;;;-0.57;100.00
71621;BME280;59471;42.254;23.102;2024-01-27T07:43:50;96555.91;;;-0.21;98.90
71621;BME280;59471;42.254;23.102;2024-01-27T07:46:16;96585.31;;;-0.40;98.69
71621;BME280;59471;42.254;23.102;2024-01-27T07:48:42;96605.00;;;-0.83;100.00
71621;BME280;59471;42.254;23.102;2024-01-27T07:51:07;96594.69;;;-0.25;100.00
71621;BME280;59471;42.254;23.102;2024-01-27T07:53:33;96595.78;;;-0.29;100.00
71621;BME280;59471;42.254;23.102;2024-01-27T07:55:59;96612.47;;;-0.79;100.00
71621;BME280;59471;42.254;23.102;2024-01-27T07:58:24;96572.81;;;-0.46;100.00
71621;BME280;59471;42.254;23.102;2024-01-27T08:00:51;96628.50;;;-0.31;99.58
71621;BME280;59471;42.254;23.102;2024-01-27T08:03:16;96607.38;;;-0.21;99.88
71621;BME280;59471;42.254;23.102;2024-01-27T08:05:42;96616.94;;;-0.09;98.99
71621;BME280;59471;42.254;23.102;2024-01-27T08:08:07;96620.13;;;-0.20;99.73
71621;BME280;59471;42.254;23.102;2024-01-27T08:10:33;96633.56;;;-0.15;99.53
71621;BME280;59471;42.254;23.102;2024-01-27T08:12:58;96638.25;;;-0.07;98.62
71621;BME280;59471;42.254;23.102;2024-01-27T08:15:24;96635.84;;;0.18;98.82
71621;BME280;59471;42.254;23.102;2024-01-27T08:17:49;96647.44;;;0.26;97.50
71621;BME280;59471;42.254;23.102;2024-01-27T08:20:15;96647.75;;;0.48;96.94
71621;BME280;59471;42.254;23.102;2024-01-27T08:22:40;96665.94;;;0.59;95.68
71621;BME280;59471;42.254;23.102;2024-01-27T08:25:06;96650.81;;;0.40;96.07
71621;BME280;59471;42.254;23.102;2024-01-27T08:27:32;96659.34;;;0.55;96.85
71621;BME280;59471;42.254;23.102;2024-01-27T08:29:57;96660.41;;;0.65;96.80
71621;BME280;59471;42.254;23.102;2024-01-27T08:32:23;96662.13;;;0.38;97.43
71621;BME280;59471;42.254;23.102;2024-01-27T08:34:49;96669.59;;;0.28;98.00
71621;BME280;59471;42.254;23.102;2024-01-27T08:37:17;96664.72;;;0.23;98.30
71621;BME280;59471;42.254;23.102;2024-01-27T08:39:44;96654.19;;;0.41;98.78
71621;BME280;59471;42.254;23.102;2024-01-27T08:42:10;96652.16;;;0.60;97.86
71621;BME280;59471;42.254;23.102;2024-01-27T08:44:39;96653.09;;;0.86;97.14
71621;BME280;59471;42.254;23.102;2024-01-27T08:47:05;96640.00;;;1.29;96.15
71621;BME280;59471;42.254;23.102;2024-01-27T08:49:31;96646.03;;;1.55;94.53
71621;BME280;59471;42.254;23.102;2024-01-27T08:51:57;96633.31;;;1.78;94.12
71621;BME280;59471;42.254;23.102;2024-01-27T08:54:23;96640.31;;;2.14;91.21
71621;BME280;59471;42.254;23.102;2024-01-27T08:56:49;96632.06;;;2.59;87.39
71621;BME280;59471;42.254;23.102;2024-01-27T08:59:14;96622.75;;;2.56;88.59
71621;BME280;59471;42.254;23.102;2024-01-27T09:01:40;96620.94;;;2.32;90.41
71621;BME280;59471;42.254;23.102;2024-01-27T09:04:05;96638.31;;;2.43;91.03
71621;BME280;59471;42.254;23.102;2024-01-27T09:06:31;96647.56;;;2.59;90.62
71621;BME280;59471;42.254;23.102;2024-01-27T09:08:57;96653.78;;;2.80;88.53
71621;BME280;59471;42.254;23.102;2024-01-27T09:11:23;96646.34;;;2.99;85.59
71621;BME280;59471;42.254;23.102;2024-01-27T09:13:49;96636.41;;;3.41;80.86
71621;BME280;59471;42.254;23.102;2024-01-27T09:16:17;96627.00;;;3.52;80.02
71621;BME280;59471;42.254;23.102;2024-01-27T09:18:43;96595.25;;;3.61;78.75
71621;BME280;59471;42.254;23.102;2024-01-27T09:21:09;96617.53;;;3.86;81.14
71621;BME280;59471;42.254;23.102;2024-01-27T09:23:34;96627.88;;;3.75;81.72
71621;BME280;59471;42.254;23.102;2024-01-27T09:26:00;96645.69;;;3.79;79.69
71621;BME280;59471;42.254;23.102;2024-01-27T09:28:26;96623.44;;;3.88;77.41
71621;BME280;59471;42.254;23.102;2024-01-27T09:30:51;96632.72;;;3.90;77.06
71621;BME280;59471;42.254;23.102;2024-01-27T09:33:17;96621.91;;;3.85;77.86
71621;BME280;59471;42.254;23.102;2024-01-27T09:35:47;96608.22;;;3.72;77.84
71621;BME280;59471;42.254;23.102;2024-01-27T09:38:13;96609.88;;;3.73;78.22
71621;BME280;59471;42.254;23.102;2024-01-27T09:40:40;96607.03;;;3.87;74.86
71621;BME280;59471;42.254;23.102;2024-01-27T09:43:06;96595.25;;;3.83;77.00
71621;BME280;59471;42.254;23.102;2024-01-27T09:45:32;96613.16;;;3.86;76.64
71621;BME280;59471;42.254;23.102;2024-01-27T09:47:59;96624.59;;;4.17;74.43
71621;BME280;59471;42.254;23.102;2024-01-27T09:50:25;96616.47;;;4.00;76.04
71621;BME280;59471;42.254;23.102;2024-01-27T09:52:51;96613.06;;;3.88;77.56
71621;BME280;59471;42.254;23.102;2024-01-27T09:55:17;96612.47;;;4.07;76.37
71621;BME280;59471;42.254;23.102;2024-01-27T09:57:44;96614.09;;;3.97;77.56
71621;BME280;59471;42.254;23.102;2024-01-27T10:00:10;96622.94;;;3.94;76.61
71621;BME280;59471;42.254;23.102;2024-01-27T10:02:39;96619.41;;;3.72;78.57
71621;BME280;59471;42.254;23.102;2024-01-27T10:05:08;96624.47;;;3.63;80.52
71621;BME280;59471;42.254;23.102;2024-01-27T10:07:34;96626.56;;;3.58;80.56
71621;BME280;59471;42.254;23.102;2024-01-27T10:09:59;96622.81;;;3.73;80.14
71621;BME280;59471;42.254;23.102;2024-01-27T10:12:28;96618.97;;;3.43;81.79
71621;BME280;59471;42.254;23.102;2024-01-27T10:14:54;96608.25;;;3.37;83.28
71621;BME280;59471;42.254;23.102;2024-01-27T10:17:23;96618.75;;;3.46;83.37
71621;BME280;59471;42.254;23.102;2024-01-27T10:20:04;96621.69;;;3.42;82.81
71621;BME280;59471;42.254;23.102;2024-01-27T10:22:40;96615.69;;;3.41;83.74
71621;BME280;59471;42.254;23.102;2024-01-27T10:25:07;96620.50;;;3.35;83.20
71621;BME280;59471;42.254;23.102;2024-01-27T10:27:33;96622.06;;;3.48;82.21
71621;BME280;59471;42.254;23.102;2024-01-27T10:29:59;96603.44;;;3.43;82.61
71621;BME280;59471;42.254;23.102;2024-01-27T10:32:25;96628.88;;;3.49;81.85
71621;BME280;59471;42.254;23.102;2024-01-27T10:35:07;96629.38;;;3.55;81.94
71621;BME280;59471;42.254;23.102;2024-01-27T10:37:37;96636.19;;;3.44;82.62
71621;BME280;59471;42.254;23.102;2024-01-27T10:40:03;96642.31;;;3.55;82.76
71621;BME280;59471;42.254;23.102;2024-01-27T10:42:33;96630.56;;;3.51;82.63
71621;BME280;59471;42.254;23.102;2024-01-27T10:45:00;96628.66;;;3.41;82.40
71621;BME280;59471;42.254;23.102;2024-01-27T10:47:29;96634.38;;;3.69;78.20
71621;BME280;59471;42.254;23.102;2024-01-27T10:49:57;96639.81;;;3.88;77.40
71621;BME280;59471;42.254;23.102;2024-01-27T10:52:42;96636.50;;;3.86;79.06
71621;BME280;59471;42.254;23.102;2024-01-27T10:55:11;96638.13;;;3.76;78.62
71621;BME280;59471;42.254;23.102;2024-01-27T10:57:37;96636.22;;;3.78;78.76
71621;BME280;59471;42.254;23.102;2024-01-27T11:00:05;96638.25;;;3.97;77.47
71621;BME280;59471;42.254;23.102;2024-01-27T11:02:33;96626.13;;;3.86;78.41
71621;BME280;59471;42.254;23.102;2024-01-27T11:05:03;96625.19;;;3.99;76.44
71621;BME280;59471;42.254;23.102;2024-01-27T11:07:34;96643.81;;;4.26;73.60
71621;BME280;59471;42.254;23.102;2024-01-27T11:10:00;96643.59;;;4.29;75.22
71621;BME280;59471;42.254;23.102;2024-01-27T11:12:26;96649.94;;;4.25;75.91
71621;BME280;59471;42.254;23.102;2024-01-27T11:14:52;96654.31;;;4.13;77.15
71621;BME280;59471;42.254;23.102;2024-01-27T11:17:19;96648.28;;;4.13;76.47
71621;BME280;59471;42.254;23.102;2024-01-27T11:19:45;96670.69;;;4.14;75.94
71621;BME280;59471;42.254;23.102;2024-01-27T11:22:27;96673.25;;;4.25;76.13
71621;BME280;59471;42.254;23.102;2024-01-27T11:27:39;96675.75;;;4.04;78.54
71621;BME280;59471;42.254;23.102;2024-01-27T11:30:06;96679.38;;;4.02;79.04
71621;BME280;59471;42.254;23.102;2024-01-27T11:32:48;96685.84;;;3.85;79.30
71621;BME280;59471;42.254;23.102;2024-01-27T11:35:17;96683.16;;;4.09;76.70
71621;BME280;59471;42.254;23.102;2024-01-27T11:37:43;96686.44;;;4.00;77.58
71621;BME280;59471;42.254;23.102;2024-01-27T11:40:09;96690.38;;;4.16;74.71
71621;BME280;59471;42.254;23.102;2024-01-27T11:42:35;96699.31;;;4.35;74.25
71621;BME280;59471;42.254;23.102;2024-01-27T11:45:02;96705.81;;;4.29;74.53
71621;BME280;59471;42.254;23.102;2024-01-27T11:47:28;96714.28;;;4.31;74.30
71621;BME280;59471;42.254;23.102;2024-01-27T11:49:55;96716.88;;;4.20;76.18
71621;BME280;59471;42.254;23.102;2024-01-27T11:52:23;96714.25;;;4.09;77.11
71621;BME280;59471;42.254;23.102;2024-01-27T11:54:56;96716.63;;;4.01;77.09
71621;BME280;59471;42.254;23.102;2024-01-27T11:57:22;96708.34;;;3.95;77.50
71621;BME280;59471;42.254;23.102;2024-01-27T11:59:48;96710.97;;;4.07;76.88
71621;BME280;59471;42.254;23.102;2024-01-27T12:02:14;96716.16;;;4.07;77.19
71621;BME280;59471;42.254;23.102;2024-01-27T12:04:40;96721.59;;;4.26;77.15
71621;BME280;59471;42.254;23.102;2024-01-27T12:07:06;96714.28;;;4.20;77.87
71621;BME280;59471;42.254;23.102;2024-01-27T12:09:32;96703.69;;;4.34;76.73
71621;BME280;59471;42.254;23.102;2024-01-27T12:11:58;96716.88;;;4.54;74.51
71621;BME280;59471;42.254;23.102;2024-01-27T12:14:23;96710.28;;;4.61;74.83
71621;BME280;59471;42.254;23.102;2024-01-27T12:16:50;96711.25;;;4.49;76.51
71621;BME280;59471;42.254;23.102;2024-01-27T12:19:15;96710.06;;;4.41;76.99
71621;BME280;59471;42.254;23.102;2024-01-27T12:21:48;96706.63;;;4.52;76.16
71621;BME280;59471;42.254;23.102;2024-01-27T12:24:17;96706.97;;;4.59;76.47
71621;BME280;59471;42.254;23.102;2024-01-27T12:26:45;96702.00;;;4.78;75.01
71621;BME280;59471;42.254;23.102;2024-01-27T12:29:10;96703.72;;;5.00;73.09
71621;BME280;59471;42.254;23.102;2024-01-27T12:31:36;96688.97;;;5.12;73.91
71621;BME280;59471;42.254;23.102;2024-01-27T12:34:02;96696.19;;;4.97;75.06
71621;BME280;59471;42.254;23.102;2024-01-27T12:36:28;96691.94;;;4.96;75.47
71621;BME280;59471;42.254;23.102;2024-01-27T12:38:57;96691.81;;;4.98;75.04
71621;BME280;59471;42.254;23.102;2024-01-27T12:41:25;96684.09;;;5.19;74.49
71621;BME280;59471;42.254;23.102;2024-01-27T12:43:51;96682.44;;;5.50;72.37
71621;BME280;59471;42.254;23.102;2024-01-27T12:46:17;96686.56;;;5.73;71.04
71621;BME280;59471;42.254;23.102;2024-01-27T12:48:44;96686.81;;;5.70;70.08
71621;BME280;59471;42.254;23.102;2024-01-27T12:51:10;96694.34;;;5.73;67.48
71621;BME280;59471;42.254;23.102;2024-01-27T12:53:38;96692.28;;;5.88;67.14